»·PEaware :: SWA196 KSAN-KLAS

SWA196 :: KSAN-KLAS

FLIGHT INFORMATION

Flight Status: Arrived
Operator:
Southwest Airlines
More flights by this operator :: More flights under this callsign
Pilot: Owen W. (4623)
Aircraft: Unknown
(738)
More flights by this aircraft type
Origin: KSAN San Diego Intl-Lindbergh
United States
Destination: KLAS McCarran Intl
United States
More flights between these airports :: More routes between these airports
Route: +PEBLE6 SXC LAX DAG KEPEC3
File this flight plan on PilotEdge
Remarks: / L
Altitude:
(Current/Filed)
290ft
Speed:
(Current/Filed)
505kts
Departed: 04-Nov-15 07:07 PM
Arrived: 04-Nov-15 08:04 PM
Distance/Time
Traveled:
225nm/0:57
Distance/Time
To Go:
Arrived

Flight Plot

Page will automatically refresh every two minutes.


Map Options




Map Legend


Flown Route
Filed Route
Departure Airport
Arrival Airport
Navaid (VOR, NDB)
Fix

Horizontal Profiles

Position Reports

Time Latitude Longitude Heading Altitude Ground
Speed
04-Nov-15 18:48 32.733282 -117.196023 200 22ft 0kts
04-Nov-15 18:49 32.733282 -117.196023 200 22ft 0kts
04-Nov-15 18:50 32.733282 -117.196023 200 22ft 0kts
04-Nov-15 18:51 32.733282 -117.196023 200 22ft 0kts
04-Nov-15 18:52 32.733282 -117.196023 200 22ft 0kts
04-Nov-15 18:53 32.733282 -117.196023 200 22ft 0kts
04-Nov-15 18:54 32.733282 -117.196023 200 22ft 0kts
04-Nov-15 18:55 32.733331 -117.196001 201 22ft 1kts
04-Nov-15 18:56 32.733757 -117.195791 200 22ft 1kts
04-Nov-15 18:57 32.734031 -117.195876 106 22ft 0kts
04-Nov-15 18:58 32.734028 -117.195865 106 22ft 2kts
04-Nov-15 18:59 32.733846 -117.195139 106 22ft 13kts
04-Nov-15 19:00 32.732709 -117.190439 106 22ft 19kts
04-Nov-15 19:01 32.731318 -117.184713 105 19ft 18kts
04-Nov-15 19:02 32.729917 -117.178920 105 21ft 21kts
04-Nov-15 19:03 32.729632 -117.176244 72 23ft 3kts
04-Nov-15 19:04 32.730530 -117.177181 286 23ft 27kts
04-Nov-15 19:05 32.743647 -117.215592 302 1625ft 183kts
04-Nov-15 19:06 32.771090 -117.263000 304 4891ft 199kts
04-Nov-15 19:07 32.804514 -117.317591 304 8606ft 244kts
04-Nov-15 19:08 32.844092 -117.380068 305 12301ft 258kts
04-Nov-15 19:09 32.897893 -117.442352 321 14723ft 291kts
04-Nov-15 19:10 32.959959 -117.503390 308 16787ft 312kts
04-Nov-15 19:11 33.013667 -117.584055 308 18861ft 327kts
04-Nov-15 19:12 33.070390 -117.670046 309 20853ft 338kts
04-Nov-15 19:13 33.127121 -117.756077 309 22807ft 342kts
04-Nov-15 19:14 33.184226 -117.844457 302 24789ft 343kts
04-Nov-15 19:15 33.219636 -117.949483 296 26292ft 354kts
04-Nov-15 19:16 33.253997 -118.054723 296 27571ft 362kts
04-Nov-15 19:17 33.288507 -118.160823 296 28698ft 371kts
04-Nov-15 19:18 33.328644 -118.272583 311 29043ft 378kts
04-Nov-15 19:19 33.423615 -118.282761 27 29053ft 444kts
04-Nov-15 19:20 33.509703 -118.185898 33 29079ft 451kts
04-Nov-15 19:21 33.588573 -118.098851 32 29047ft 457kts
04-Nov-15 19:22 33.662888 -118.020147 31 29054ft 456kts
04-Nov-15 19:23 33.737127 -117.943752 30 29054ft 455kts
04-Nov-15 19:24 33.804393 -117.875657 31 29062ft 460kts
04-Nov-15 19:25 33.877465 -117.801336 31 29054ft 462kts
04-Nov-15 19:26 33.952960 -117.723700 31 29054ft 463kts
04-Nov-15 19:27 34.027331 -117.646515 31 29054ft 463kts
04-Nov-15 19:28 34.102095 -117.568106 31 29054ft 464kts
04-Nov-15 19:29 34.176527 -117.489015 32 29055ft 464kts
04-Nov-15 19:30 34.245911 -117.413781 33 29026ft 456kts
04-Nov-15 19:31 34.328836 -117.322301 33 29034ft 455kts
04-Nov-15 19:32 34.414964 -117.225166 34 29042ft 455kts
04-Nov-15 19:33 34.501778 -117.124907 34 29024ft 457kts
04-Nov-15 19:34 34.586585 -117.024706 35 28034ft 451kts
04-Nov-15 19:35 34.672842 -116.923996 34 26926ft 443kts
04-Nov-15 19:36 34.759115 -116.823150 35 26067ft 438kts
04-Nov-15 19:37 34.845312 -116.720497 36 25207ft 434kts
04-Nov-15 19:38 34.928478 -116.619699 37 24094ft 409kts
04-Nov-15 19:39 35.004781 -116.523761 37 22765ft 394kts
04-Nov-15 19:40 35.070155 -116.441123 38 21632ft 387kts
04-Nov-15 19:41 35.126346 -116.370015 39 20638ft 381kts
04-Nov-15 19:42 35.197971 -116.279303 39 19244ft 367kts
04-Nov-15 19:43 35.268394 -116.190422 39 17909ft 360kts
04-Nov-15 19:44 35.337630 -116.103314 39 16705ft 354kts
04-Nov-15 19:45 35.405604 -116.017995 39 15571ft 349kts
04-Nov-15 19:46 35.473036 -115.933514 39 14464ft 343kts
04-Nov-15 19:47 35.538470 -115.851170 40 13498ft 340kts
04-Nov-15 19:48 35.603608 -115.769380 40 13020ft 337kts
04-Nov-15 19:49 35.663596 -115.695386 39 13018ft 325kts
04-Nov-15 19:50 35.693335 -115.658854 43 13028ft 327kts
04-Nov-15 19:51 35.748292 -115.581143 70 12772ft 330kts
04-Nov-15 19:52 35.770595 -115.483206 71 11675ft 310kts
04-Nov-15 19:53 35.786707 -115.412887 71 10756ft 292kts
04-Nov-15 19:54 35.798542 -115.361776 71 9979ft 278kts
04-Nov-15 19:55 35.808847 -115.317986 71 9367ft 274kts
04-Nov-15 19:56 35.847675 -115.251861 41 8139ft 255kts
04-Nov-15 19:57 35.899175 -115.209676 12 8067ft 226kts
04-Nov-15 19:58 35.954015 -115.211451 342 7055ft 199kts
04-Nov-15 19:59 36.003678 -115.210746 15 5466ft 174kts
04-Nov-15 20:00 36.042657 -115.188923 25 3181ft 139kts
04-Nov-15 20:01 36.076480 -115.169849 28 2227ft 132kts
04-Nov-15 20:02 36.093251 -115.160070 31 2113ft 16kts
04-Nov-15 20:03 36.093200 -115.158303 115 2106ft 0kts
04-Nov-15 20:04 36.092066 -115.155464 140 2100ft 20kts
04-Nov-15 20:05 36.087420 -115.157719 205 2120ft 18kts
04-Nov-15 20:06 36.081773 -115.155039 154 2125ft 22kts
04-Nov-15 20:07 36.078663 -115.150631 80 2114ft 23kts
04-Nov-15 20:08 36.080334 -115.149202 160 2105ft 9kts
04-Nov-15 20:09 36.079930 -115.147109 55 2100ft 0kts
04-Nov-15 20:10 36.079921 -115.147126 56 2100ft 0kts

Navigation Log

Ident Type
Flight plan parsing failed, navigation log unavailable